createdAt,value
2023-05-28T00:00:12.862Z,9.65
2023-05-28T00:02:40.505Z,9.75
2023-05-28T00:05:07.597Z,9.69
2023-05-28T00:07:34.044Z,10.17
2023-05-28T00:10:00.726Z,10.41
2023-05-28T00:12:27.269Z,10.61
2023-05-28T00:14:53.951Z,10.68
2023-05-28T00:17:20.420Z,10.73
2023-05-28T00:19:46.851Z,10.78
2023-05-28T00:22:13.728Z,10.78
2023-05-28T00:24:40.228Z,10.81
2023-05-28T00:27:07.344Z,10.78
2023-05-28T00:29:34.099Z,10.81
2023-05-28T00:32:00.686Z,10.77
2023-05-28T00:34:27.624Z,10.73
2023-05-28T00:36:54.704Z,10.61
2023-05-28T00:39:21.618Z,10.53
2023-05-28T00:41:48.047Z,10.31
2023-05-28T00:44:14.639Z,10.15
2023-05-28T00:46:43.257Z,10.13
2023-05-28T00:49:11.790Z,9.98
2023-05-28T00:51:39.406Z,9.85
2023-05-28T00:54:06.520Z,9.83
2023-05-28T00:56:33.044Z,9.70
2023-05-28T00:59:02.985Z,9.65
2023-05-28T01:01:30.669Z,9.64
2023-05-28T01:03:57.434Z,9.68
2023-05-28T01:06:24.106Z,9.54
2023-05-28T01:08:52.059Z,9.71
2023-05-28T01:11:20.524Z,9.66
2023-05-28T01:13:48.548Z,9.87
2023-05-28T01:16:15.569Z,9.71
2023-05-28T01:18:45.626Z,9.66
2023-05-28T01:21:13.048Z,9.63
2023-05-28T01:23:45.004Z,9.57
2023-05-28T01:26:17.816Z,9.66
2023-05-28T01:28:48.169Z,9.54
2023-05-28T01:31:15.151Z,9.57
2023-05-28T01:33:42.847Z,9.75
2023-05-28T01:36:24.150Z,9.63
2023-05-28T01:38:53.898Z,9.60
2023-05-28T01:41:21.329Z,9.41
2023-05-28T01:43:48.226Z,9.33
2023-05-28T01:46:15.136Z,9.34
2023-05-28T01:48:42.028Z,9.33
2023-05-28T01:51:08.598Z,9.27
2023-05-28T01:53:35.121Z,9.29
2023-05-28T01:56:02.614Z,9.24
2023-05-28T01:58:30.205Z,9.16
2023-05-28T02:01:10.168Z,9.08
2023-05-28T02:03:36.640Z,9.03
2023-05-28T02:06:03.223Z,9.07
2023-05-28T02:08:29.714Z,9.02
2023-05-28T02:10:56.429Z,8.98
2023-05-28T02:13:23.056Z,9.07
2023-05-28T02:15:49.654Z,8.95
2023-05-28T02:18:16.131Z,8.99
2023-05-28T02:20:43.794Z,8.92
2023-05-28T02:23:10.484Z,8.87
2023-05-28T02:25:36.994Z,8.93
2023-05-28T02:28:04.708Z,8.87
2023-05-28T02:30:31.472Z,8.95
2023-05-28T02:32:58.030Z,9.46
2023-05-28T02:35:24.676Z,9.70
2023-05-28T02:37:51.382Z,9.79
2023-05-28T02:40:17.983Z,9.83
2023-05-28T02:42:45.814Z,9.86
2023-05-28T02:45:14.277Z,9.90
2023-05-28T02:47:40.871Z,9.92
2023-05-28T02:50:07.942Z,9.90
2023-05-28T02:52:34.432Z,9.90
2023-05-28T02:55:00.869Z,9.87
2023-05-28T02:57:27.453Z,9.90
2023-05-28T02:59:53.884Z,9.84
2023-05-28T03:02:20.359Z,9.73
2023-05-28T03:04:46.842Z,9.65
2023-05-28T03:07:13.289Z,9.46
2023-05-28T03:09:39.800Z,9.39
2023-05-28T03:12:06.920Z,9.28
2023-05-28T03:14:33.466Z,9.34
2023-05-28T03:16:59.918Z,9.25
2023-05-28T03:19:26.715Z,9.16
2023-05-28T03:21:53.178Z,9.03
2023-05-28T03:24:19.663Z,8.98
2023-05-28T03:26:46.138Z,9.00
2023-05-28T03:29:12.639Z,9.02
2023-05-28T03:31:47.350Z,8.95
2023-05-28T03:34:14.041Z,9.06
2023-05-28T03:36:43.283Z,9.11
2023-05-28T03:39:10.567Z,9.10
2023-05-28T03:41:38.110Z,9.10
2023-05-28T03:44:06.288Z,9.39
2023-05-28T03:46:32.890Z,9.59
2023-05-28T03:48:59.719Z,9.78
2023-05-28T03:51:28.169Z,9.88
2023-05-28T03:53:55.446Z,10.04
2023-05-28T03:56:22.076Z,10.14
2023-05-28T03:58:48.609Z,10.13
2023-05-28T04:01:15.141Z,10.08
2023-05-28T04:03:41.787Z,10.03
2023-05-28T04:06:08.465Z,9.95
2023-05-28T04:08:35.316Z,10.05
2023-05-28T04:11:01.870Z,10.04
2023-05-28T04:13:28.584Z,10.13
2023-05-28T04:15:55.216Z,10.20
2023-05-28T04:18:21.767Z,10.23
2023-05-28T04:20:48.367Z,10.26
2023-05-28T04:23:15.052Z,10.29
2023-05-28T04:25:42.107Z,10.37
2023-05-28T04:28:08.626Z,10.47
2023-05-28T04:30:35.096Z,10.54
2023-05-28T04:33:01.565Z,10.60
2023-05-28T04:35:28.053Z,10.66
2023-05-28T04:37:54.492Z,10.74
2023-05-28T04:40:22.189Z,10.77
2023-05-28T04:42:48.764Z,10.86
2023-05-28T04:45:15.472Z,10.98
2023-05-28T04:47:42.643Z,11.05
2023-05-28T04:50:10.592Z,11.08
2023-05-28T04:52:37.075Z,11.12
2023-05-28T04:55:07.412Z,11.18
2023-05-28T04:57:34.129Z,11.28
2023-05-28T05:00:00.741Z,11.36
2023-05-28T05:02:27.207Z,11.52
2023-05-28T05:04:53.774Z,11.64
2023-05-28T05:07:21.877Z,11.78
2023-05-28T05:09:48.410Z,11.91
2023-05-28T05:12:14.922Z,11.99
2023-05-28T05:14:41.503Z,12.12
2023-05-28T05:17:09.736Z,12.21
2023-05-28T05:19:36.536Z,12.32
2023-05-28T05:22:05.897Z,12.42
2023-05-28T05:24:32.824Z,12.49
2023-05-28T05:26:59.308Z,12.62
2023-05-28T05:29:25.950Z,12.67
2023-05-28T05:31:52.485Z,12.72
2023-05-28T05:34:18.989Z,12.78
2023-05-28T05:36:45.626Z,12.82
2023-05-28T05:39:12.125Z,12.84
2023-05-28T05:41:38.567Z,12.96
2023-05-28T05:44:05.091Z,13.02
2023-05-28T05:46:31.585Z,13.07
2023-05-28T05:48:58.136Z,13.11
2023-05-28T05:51:24.605Z,13.18
2023-05-28T05:53:51.120Z,13.18
2023-05-28T05:56:17.634Z,13.25
2023-05-28T05:58:44.167Z,13.37
2023-05-28T06:01:11.145Z,13.44
2023-05-28T06:03:37.764Z,13.51
2023-05-28T06:06:04.405Z,13.56
2023-05-28T06:08:30.978Z,13.63
2023-05-28T06:10:57.493Z,13.68
2023-05-28T06:13:24.178Z,13.78
2023-05-28T06:15:50.658Z,13.86
2023-05-28T06:18:17.535Z,13.98
2023-05-28T06:20:44.241Z,14.04
2023-05-28T06:23:11.188Z,14.15
2023-05-28T06:25:38.156Z,14.20
2023-05-28T06:28:05.296Z,14.30
2023-05-28T06:30:31.817Z,14.40
2023-05-28T06:32:58.398Z,14.42
2023-05-28T06:35:24.932Z,14.44
2023-05-28T06:37:51.423Z,14.57
2023-05-28T06:40:17.943Z,14.67
2023-05-28T06:42:44.445Z,14.71
2023-05-28T06:45:12.065Z,14.70
2023-05-28T06:47:38.638Z,14.75
2023-05-28T06:50:05.382Z,14.73
2023-05-28T06:52:31.809Z,14.85
2023-05-28T06:54:58.299Z,14.86
2023-05-28T06:57:24.807Z,14.94
2023-05-28T06:59:51.341Z,15.03
2023-05-28T07:02:17.898Z,15.06
2023-05-28T07:04:44.653Z,14.96
2023-05-28T07:07:11.505Z,15.12
2023-05-28T07:09:38.084Z,15.45
2023-05-28T07:12:04.678Z,15.78
2023-05-28T07:14:31.104Z,16.06
2023-05-28T07:16:57.640Z,16.32
2023-05-28T07:19:24.129Z,16.58
2023-05-28T07:21:50.588Z,16.80
2023-05-28T07:24:17.065Z,17.06
2023-05-28T07:26:43.612Z,17.23
2023-05-28T07:29:10.090Z,17.48
2023-05-28T07:31:39.390Z,17.59
2023-05-28T07:34:06.798Z,17.57
2023-05-28T07:36:33.219Z,17.78
2023-05-28T07:38:59.689Z,18.01
2023-05-28T07:41:26.466Z,18.10
2023-05-28T07:43:52.901Z,18.19
2023-05-28T07:46:19.442Z,18.04
2023-05-28T07:48:46.545Z,18.13
2023-05-28T07:51:12.979Z,18.08
2023-05-28T07:53:39.488Z,18.21
2023-05-28T07:56:06.414Z,18.34
2023-05-28T07:58:32.862Z,18.34
2023-05-28T08:00:59.359Z,18.19
2023-05-28T08:03:28.593Z,17.96
2023-05-28T08:05:56.172Z,18.08
2023-05-28T08:08:22.796Z,18.26
2023-05-28T08:10:49.268Z,18.28
2023-05-28T08:13:15.722Z,18.36
2023-05-28T08:15:42.302Z,18.35
2023-05-28T08:18:08.780Z,18.44
2023-05-28T08:20:36.398Z,18.46
2023-05-28T08:23:03.564Z,18.47
2023-05-28T08:25:30.045Z,18.39
2023-05-28T08:27:56.472Z,18.26
2023-05-28T08:30:22.932Z,18.28
2023-05-28T08:32:49.546Z,18.36
2023-05-28T08:35:16.548Z,18.36
2023-05-28T08:37:43.035Z,18.27
2023-05-28T08:40:10.402Z,18.32
2023-05-28T08:42:37.193Z,18.36
2023-05-28T08:45:04.341Z,18.28
2023-05-28T08:47:35.173Z,18.33
2023-05-28T08:50:07.181Z,18.28
2023-05-28T08:52:34.822Z,18.24
2023-05-28T08:55:02.431Z,18.08
2023-05-28T08:57:30.767Z,18.12
2023-05-28T09:00:00.869Z,18.21
2023-05-28T09:02:27.929Z,18.08
2023-05-28T09:04:57.514Z,18.14
2023-05-28T09:07:32.784Z,18.15
2023-05-28T09:10:00.973Z,18.50
2023-05-28T09:12:33.675Z,18.77
2023-05-28T09:15:01.394Z,19.08
2023-05-28T09:17:47.072Z,19.39
2023-05-28T09:20:14.432Z,19.58
2023-05-28T09:22:41.304Z,19.59
2023-05-28T09:25:08.546Z,19.80
2023-05-28T09:27:36.259Z,19.94
2023-05-28T09:30:08.346Z,20.08
2023-05-28T09:32:36.135Z,20.16
2023-05-28T09:35:06.341Z,20.26
2023-05-28T09:37:32.903Z,20.34
2023-05-28T09:40:05.075Z,20.51
2023-05-28T09:42:42.837Z,20.59
2023-05-28T09:45:10.747Z,20.68
2023-05-28T09:47:44.708Z,20.45
2023-05-28T09:50:12.311Z,20.74
2023-05-28T09:52:39.882Z,20.71
2023-05-28T09:55:08.310Z,20.29
2023-05-28T09:57:37.725Z,19.84
2023-05-28T10:00:13.794Z,20.31
2023-05-28T10:02:51.753Z,20.02
2023-05-28T10:05:21.031Z,19.96
2023-05-28T10:07:52.579Z,20.28
2023-05-28T10:10:21.432Z,20.25
2023-05-28T10:12:50.806Z,20.22
2023-05-28T10:15:18.226Z,20.38
2023-05-28T10:17:45.151Z,20.45
2023-05-28T10:20:12.707Z,20.40
2023-05-28T10:22:40.704Z,20.32
2023-05-28T10:25:09.144Z,20.31
2023-05-28T10:27:38.287Z,19.85
2023-05-28T10:30:05.872Z,19.73
2023-05-28T10:32:42.579Z,19.59
2023-05-28T10:35:13.347Z,19.70
2023-05-28T10:37:40.447Z,19.50
2023-05-28T10:40:11.391Z,19.35
2023-05-28T10:42:44.103Z,19.51
2023-05-28T10:45:11.533Z,19.39
2023-05-28T10:47:42.542Z,19.53
2023-05-28T10:50:18.676Z,19.37
2023-05-28T10:53:05.103Z,19.28
2023-05-28T10:55:50.854Z,19.32
2023-05-28T10:58:26.785Z,19.34
2023-05-28T11:00:54.187Z,19.49
2023-05-28T11:03:43.188Z,19.47
2023-05-28T11:06:15.103Z,19.60
2023-05-28T11:08:42.824Z,19.71
2023-05-28T11:11:13.668Z,19.89
2023-05-28T11:13:49.937Z,20.12
2023-05-28T11:16:18.504Z,20.35
2023-05-28T11:19:02.449Z,20.56
2023-05-28T11:21:28.971Z,20.77
2023-05-28T11:24:06.125Z,20.89
2023-05-28T11:26:33.954Z,21.04
2023-05-28T11:29:01.940Z,21.12
2023-05-28T11:31:29.243Z,21.21
2023-05-28T11:33:57.135Z,21.26
2023-05-28T11:36:23.622Z,21.26
2023-05-28T11:39:04.888Z,21.54
2023-05-28T11:41:32.235Z,21.54
2023-05-28T11:43:59.071Z,21.55
2023-05-28T11:46:26.121Z,21.63
2023-05-28T11:48:52.709Z,21.66
2023-05-28T11:51:22.522Z,21.54
2023-05-28T11:53:49.156Z,21.38
2023-05-28T11:56:15.744Z,21.33
2023-05-28T11:58:47.002Z,21.34
2023-05-28T12:01:15.832Z,20.92
2023-05-28T12:03:42.928Z,21.17
2023-05-28T12:06:09.482Z,21.16
2023-05-28T12:08:39.443Z,21.25
2023-05-28T12:11:07.647Z,21.12
2023-05-28T12:13:35.540Z,21.19
2023-05-28T12:16:12.617Z,20.91
2023-05-28T12:18:43.254Z,20.85
2023-05-28T12:21:20.054Z,20.86
2023-05-28T12:23:47.611Z,20.73
2023-05-28T12:26:16.099Z,20.49
2023-05-28T12:28:42.963Z,20.46
2023-05-28T12:31:09.992Z,20.53
2023-05-28T12:33:37.075Z,20.50
2023-05-28T12:36:03.899Z,20.46
2023-05-28T12:38:30.492Z,20.41
2023-05-28T12:40:57.418Z,20.33
2023-05-28T12:43:24.212Z,19.92
2023-05-28T12:45:51.033Z,20.03
2023-05-28T12:48:17.591Z,20.27
2023-05-28T12:50:44.364Z,20.31
2023-05-28T12:53:10.893Z,20.44
2023-05-28T12:55:37.567Z,20.44
2023-05-28T12:58:04.164Z,20.48
2023-05-28T13:00:31.096Z,20.50
2023-05-28T13:02:57.723Z,20.14
2023-05-28T13:05:24.379Z,20.33
2023-05-28T13:07:50.872Z,20.24
2023-05-28T13:10:17.732Z,20.30
2023-05-28T13:12:44.273Z,20.26
2023-05-28T13:15:11.560Z,20.59
2023-05-28T13:17:38.308Z,20.81
2023-05-28T13:20:11.296Z,21.04
2023-05-28T13:22:38.395Z,21.17
2023-05-28T13:25:05.562Z,21.44
2023-05-28T13:27:32.104Z,21.54
2023-05-28T13:29:59.247Z,21.65
2023-05-28T13:32:26.089Z,21.80
2023-05-28T13:34:53.218Z,21.90
2023-05-28T13:37:19.772Z,21.96
2023-05-28T13:39:47.065Z,22.05
2023-05-28T13:42:13.674Z,22.13
2023-05-28T13:44:40.672Z,22.19
2023-05-28T13:47:07.826Z,22.19
2023-05-28T13:49:34.427Z,22.28
2023-05-28T13:52:00.991Z,22.28
2023-05-28T13:54:27.629Z,22.29
2023-05-28T13:56:54.246Z,22.15
2023-05-28T13:59:20.864Z,22.20
2023-05-28T14:01:47.942Z,22.27
2023-05-28T14:04:14.612Z,22.23
2023-05-28T14:06:41.162Z,22.25
2023-05-28T14:09:07.580Z,22.27
2023-05-28T14:12:01.554Z,22.19
2023-05-28T14:14:20.480Z,22.19
2023-05-28T14:16:47.048Z,22.00
2023-05-28T14:19:13.558Z,22.07
2023-05-28T14:21:40.075Z,22.12
2023-05-28T14:24:06.875Z,22.05
2023-05-28T14:26:33.307Z,21.89
2023-05-28T14:28:59.822Z,21.81
2023-05-28T14:31:26.402Z,21.75
2023-05-28T14:33:53.175Z,21.78
2023-05-28T14:36:19.896Z,21.74
2023-05-28T14:38:46.630Z,21.74
2023-05-28T14:41:13.101Z,21.65
2023-05-28T14:43:39.608Z,21.71
2023-05-28T14:46:06.287Z,21.39
2023-05-28T14:48:32.878Z,21.48
2023-05-28T14:50:59.452Z,21.52
2023-05-28T14:53:25.969Z,21.53
2023-05-28T14:55:52.830Z,21.55
2023-05-28T14:58:19.776Z,21.50
2023-05-28T15:00:46.272Z,21.54
2023-05-28T15:03:12.799Z,21.46
2023-05-28T15:05:39.322Z,21.47
2023-05-28T15:08:05.753Z,21.35
2023-05-28T15:10:32.225Z,21.38
2023-05-28T15:12:58.740Z,21.32
2023-05-28T15:15:26.695Z,21.16
2023-05-28T15:17:55.528Z,21.28
2023-05-28T15:20:22.383Z,21.38
2023-05-28T15:22:49.077Z,21.60
2023-05-28T15:25:17.593Z,21.87
2023-05-28T15:27:44.155Z,22.10
2023-05-28T15:30:11.096Z,22.25
2023-05-28T15:32:38.919Z,22.44
2023-05-28T15:35:06.148Z,22.57
2023-05-28T15:37:32.751Z,22.65
2023-05-28T15:40:00.418Z,22.83
2023-05-28T15:42:27.308Z,22.94
2023-05-28T15:44:53.923Z,22.96
2023-05-28T15:47:20.437Z,22.94
2023-05-28T15:49:47.323Z,23.03
2023-05-28T15:52:13.824Z,23.08
2023-05-28T15:54:40.635Z,23.05
2023-05-28T15:57:08.761Z,23.05
2023-05-28T15:59:35.722Z,23.08
2023-05-28T16:02:03.917Z,22.98
2023-05-28T16:04:31.455Z,22.90
2023-05-28T16:06:58.063Z,22.87
2023-05-28T16:09:24.801Z,22.67
2023-05-28T16:11:54.418Z,22.65
2023-05-28T16:14:21.202Z,22.57
2023-05-28T16:16:52.349Z,22.61
2023-05-28T16:19:18.984Z,22.57
2023-05-28T16:21:45.818Z,22.48
2023-05-28T16:24:13.348Z,22.38
2023-05-28T16:26:40.029Z,22.37
2023-05-28T16:29:07.248Z,22.06
2023-05-28T16:31:34.131Z,22.19
2023-05-28T16:34:00.899Z,21.86
2023-05-28T16:36:27.647Z,21.57
2023-05-28T16:38:54.779Z,21.61
2023-05-28T16:41:22.865Z,21.39
2023-05-28T16:43:50.304Z,21.55
2023-05-28T16:46:17.613Z,21.28
2023-05-28T16:48:45.650Z,21.39
2023-05-28T16:51:12.374Z,21.31
2023-05-28T16:53:39.524Z,21.40
2023-05-28T16:56:06.637Z,21.40
2023-05-28T16:58:33.323Z,21.15
2023-05-28T17:00:59.856Z,20.89
2023-05-28T17:03:26.449Z,21.03
2023-05-28T17:05:53.194Z,20.93
2023-05-28T17:08:21.375Z,20.75
2023-05-28T17:10:48.621Z,21.12
2023-05-28T17:13:15.121Z,20.49
2023-05-28T17:15:41.632Z,20.35
2023-05-28T17:18:08.159Z,20.50
2023-05-28T17:20:37.864Z,20.37
2023-05-28T17:23:04.459Z,20.42
2023-05-28T17:25:30.870Z,20.74
2023-05-28T17:27:57.350Z,21.00
2023-05-28T17:30:23.875Z,21.28
2023-05-28T17:32:50.441Z,21.51
2023-05-28T17:35:17.040Z,21.87
2023-05-28T17:37:43.524Z,21.82
2023-05-28T17:40:10.518Z,22.06
2023-05-28T17:42:37.002Z,22.18
2023-05-28T17:45:03.801Z,21.97
2023-05-28T17:47:30.314Z,22.27
2023-05-28T17:49:56.980Z,22.12
2023-05-28T17:52:23.430Z,22.10
2023-05-28T17:54:49.888Z,22.14
2023-05-28T17:57:16.630Z,22.37
2023-05-28T17:59:43.401Z,22.20
2023-05-28T18:02:10.100Z,22.12
2023-05-28T18:04:36.832Z,22.11
2023-05-28T18:07:03.631Z,22.02
2023-05-28T18:09:30.087Z,21.82
2023-05-28T18:11:56.626Z,21.75
2023-05-28T18:14:23.647Z,21.62
2023-05-28T18:16:50.157Z,21.48
2023-05-28T18:19:21.587Z,20.94
2023-05-28T18:21:48.211Z,21.46
2023-05-28T18:24:14.691Z,20.99
2023-05-28T18:26:41.589Z,20.91
2023-05-28T18:29:08.075Z,20.64
2023-05-28T18:31:34.725Z,20.65
2023-05-28T18:34:03.814Z,20.39
2023-05-28T18:36:31.871Z,20.47
2023-05-28T18:38:58.419Z,20.69
2023-05-28T18:41:24.958Z,20.39
2023-05-28T18:43:51.429Z,20.61
2023-05-28T18:46:17.945Z,20.65
2023-05-28T18:48:44.504Z,20.55
2023-05-28T18:51:11.387Z,20.44
2023-05-28T18:53:37.888Z,20.28
2023-05-28T18:56:04.388Z,19.88
2023-05-28T18:58:30.903Z,19.73
2023-05-28T19:00:57.443Z,19.52
2023-05-28T19:03:24.076Z,19.44
2023-05-28T19:05:50.704Z,19.49
2023-05-28T19:08:17.295Z,19.80
2023-05-28T19:10:43.807Z,19.43
2023-05-28T19:13:10.570Z,19.36
2023-05-28T19:15:37.151Z,18.98
2023-05-28T19:18:03.958Z,18.89
2023-05-28T19:20:30.592Z,18.94
2023-05-28T19:22:57.131Z,19.06
2023-05-28T19:25:23.599Z,18.86
2023-05-28T19:27:50.143Z,18.84
2023-05-28T19:30:16.717Z,19.36
2023-05-28T19:32:43.325Z,19.16
2023-05-28T19:35:09.878Z,19.36
2023-05-28T19:37:36.998Z,19.48
2023-05-28T19:40:04.654Z,19.43
2023-05-28T19:42:31.186Z,19.09
2023-05-28T19:44:57.836Z,19.35
2023-05-28T19:47:24.694Z,19.40
2023-05-28T19:49:51.616Z,19.56
2023-05-28T19:52:18.268Z,19.56
2023-05-28T19:54:46.552Z,19.55
2023-05-28T19:57:14.164Z,19.54
2023-05-28T19:59:40.678Z,19.35
2023-05-28T20:02:07.882Z,19.32
2023-05-28T20:04:34.474Z,19.01
2023-05-28T20:07:01.327Z,18.80
2023-05-28T20:09:27.869Z,18.75
2023-05-28T20:11:54.340Z,18.52
2023-05-28T20:14:20.916Z,18.33
2023-05-28T20:16:47.737Z,18.37
2023-05-28T20:19:14.845Z,18.21
2023-05-28T20:21:41.447Z,18.17
2023-05-28T20:24:08.395Z,18.17
2023-05-28T20:26:34.906Z,18.20
2023-05-28T20:29:01.367Z,18.04
2023-05-28T20:31:27.900Z,17.81
2023-05-28T20:33:54.338Z,18.05
2023-05-28T20:36:21.861Z,17.95
2023-05-28T20:38:50.477Z,17.71
2023-05-28T20:41:17.053Z,17.83
2023-05-28T20:43:43.530Z,17.90
2023-05-28T20:46:11.019Z,17.72
2023-05-28T20:48:37.670Z,17.70
2023-05-28T20:51:05.026Z,17.39
2023-05-28T20:53:31.542Z,17.57
2023-05-28T20:55:58.353Z,17.58
2023-05-28T20:58:33.961Z,17.45
2023-05-28T21:01:01.342Z,17.42
2023-05-28T21:03:27.900Z,17.39
2023-05-28T21:05:54.445Z,17.16
2023-05-28T21:08:21.020Z,17.21
2023-05-28T21:10:47.547Z,17.06
2023-05-28T21:13:14.467Z,17.23
2023-05-28T21:15:41.037Z,17.18
2023-05-28T21:18:07.690Z,17.18
2023-05-28T21:20:34.557Z,17.03
2023-05-28T21:23:01.191Z,17.00
2023-05-28T21:25:27.638Z,16.95
2023-05-28T21:27:55.411Z,17.05
2023-05-28T21:30:22.107Z,16.97
2023-05-28T21:32:48.643Z,16.97
2023-05-28T21:35:15.365Z,16.89
2023-05-28T21:37:42.027Z,17.11
2023-05-28T21:40:08.975Z,17.38
2023-05-28T21:42:35.594Z,17.48
2023-05-28T21:45:02.118Z,17.61
2023-05-28T21:47:28.653Z,17.59
2023-05-28T21:49:55.154Z,17.54
2023-05-28T21:52:25.869Z,17.45
2023-05-28T21:54:54.636Z,17.34
2023-05-28T21:57:21.922Z,17.35
2023-05-28T21:59:48.579Z,17.37
2023-05-28T22:02:15.109Z,17.28
2023-05-28T22:04:43.375Z,17.25
2023-05-28T22:07:10.616Z,17.12
2023-05-28T22:09:37.129Z,16.87
2023-05-28T22:12:05.382Z,16.49
2023-05-28T22:14:32.022Z,16.19
2023-05-28T22:16:58.633Z,15.94
2023-05-28T22:19:25.382Z,15.61
2023-05-28T22:21:51.922Z,15.36
2023-05-28T22:24:18.358Z,15.15
2023-05-28T22:26:44.855Z,14.92
2023-05-28T22:29:11.394Z,14.98
2023-05-28T22:31:37.941Z,15.07
2023-05-28T22:34:04.498Z,15.21
2023-05-28T22:36:31.613Z,15.23
2023-05-28T22:38:58.116Z,15.02
2023-05-28T22:41:24.756Z,14.93
2023-05-28T22:43:51.390Z,14.75
2023-05-28T22:46:17.905Z,14.58
2023-05-28T22:48:44.410Z,14.44
2023-05-28T22:51:11.285Z,14.39
2023-05-28T22:53:40.977Z,14.34
2023-05-28T22:56:13.311Z,14.23
2023-05-28T22:58:41.298Z,13.99
2023-05-28T23:01:08.446Z,13.88
2023-05-28T23:03:35.182Z,13.78
2023-05-28T23:06:01.847Z,13.68
2023-05-28T23:08:28.301Z,13.58
2023-05-28T23:10:54.792Z,13.50
2023-05-28T23:13:21.590Z,13.40
2023-05-28T23:15:48.037Z,13.25
2023-05-28T23:18:19.117Z,13.08
2023-05-28T23:20:47.109Z,12.99
2023-05-28T23:23:15.292Z,12.88
2023-05-28T23:25:42.751Z,12.77
2023-05-28T23:28:10.204Z,12.67
2023-05-28T23:30:37.260Z,12.70
2023-05-28T23:33:04.514Z,12.79
2023-05-28T23:35:31.432Z,12.65
2023-05-28T23:37:58.060Z,12.55
2023-05-28T23:40:24.665Z,12.48
2023-05-28T23:42:51.205Z,12.42
2023-05-28T23:45:18.041Z,12.33
2023-05-28T23:47:44.651Z,12.39
2023-05-28T23:50:11.152Z,12.75
2023-05-28T23:52:37.580Z,13.05
2023-05-28T23:55:04.595Z,13.22
2023-05-28T23:57:31.112Z,13.32
2023-05-28T23:59:57.837Z,13.36
